sensor_id;sensor_type;location;lat;lon;timestamp;temperature;humidity
21928;DHT22;11128;51.096;17.190;2023-05-10T00:00:13;9.50;1.00
21928;DHT22;11128;51.096;17.190;2023-05-10T00:05:15;9.50;1.00
21928;DHT22;11128;51.096;17.190;2023-05-10T00:10:16;9.40;1.00
21928;DHT22;11128;51.096;17.190;2023-05-10T00:15:17;9.30;1.00
21928;DHT22;11128;51.096;17.190;2023-05-10T00:20:18;9.20;1.00
21928;DHT22;11128;51.096;17.190;2023-05-10T00:25:20;9.10;1.00
21928;DHT22;11128;51.096;17.190;2023-05-10T00:30:22;9.10;1.00
21928;DHT22;11128;51.096;17.190;2023-05-10T00:35:24;9.00;1.00
21928;DHT22;11128;51.096;17.190;2023-05-10T00:40:25;8.90;1.00
21928;DHT22;11128;51.096;17.190;2023-05-10T00:45:26;8.80;1.00
21928;DHT22;11128;51.096;17.190;2023-05-10T00:50:28;8.80;1.00
21928;DHT22;11128;51.096;17.190;2023-05-10T00:55:30;8.80;1.00
21928;DHT22;11128;51.096;17.190;2023-05-10T01:00:33;8.60;1.00
21928;DHT22;11128;51.096;17.190;2023-05-10T01:05:34;8.50;1.00
21928;DHT22;11128;51.096;17.190;2023-05-10T01:10:36;8.50;1.00
21928;DHT22;11128;51.096;17.190;2023-05-10T01:15:37;8.50;8.90
21928;DHT22;11128;51.096;17.190;2023-05-10T01:20:43;8.40;70.10
21928;DHT22;11128;51.096;17.190;2023-05-10T01:36:32;8.20;99.90
21928;DHT22;11128;51.096;17.190;2023-05-10T01:41:52;8.20;99.90
21928;DHT22;11128;51.096;17.190;2023-05-10T01:47:07;8.30;99.90
21928;DHT22;11128;51.096;17.190;2023-05-10T01:52:12;8.10;99.90
21928;DHT22;11128;51.096;17.190;2023-05-10T01:57:16;8.10;99.90
21928;DHT22;11128;51.096;17.190;2023-05-10T02:02:21;8.00;99.90
21928;DHT22;11128;51.096;17.190;2023-05-10T02:07:24;8.00;99.90
21928;DHT22;11128;51.096;17.190;2023-05-10T02:12:27;8.00;99.90
21928;DHT22;11128;51.096;17.190;2023-05-10T02:17:31;8.00;99.90
21928;DHT22;11128;51.096;17.190;2023-05-10T02:22:33;8.00;99.90
21928;DHT22;11128;51.096;17.190;2023-05-10T02:27:36;7.90;99.90
21928;DHT22;11128;51.096;17.190;2023-05-10T02:32:38;7.90;99.90
21928;DHT22;11128;51.096;17.190;2023-05-10T02:37:41;7.90;99.90
21928;DHT22;11128;51.096;17.190;2023-05-10T02:42:43;7.80;99.90
21928;DHT22;11128;51.096;17.190;2023-05-10T02:47:45;7.80;99.90
21928;DHT22;11128;51.096;17.190;2023-05-10T02:52:51;7.60;99.90
21928;DHT22;11128;51.096;17.190;2023-05-10T02:57:58;7.70;99.90
21928;DHT22;11128;51.096;17.190;2023-05-10T03:03:00;7.80;99.90
21928;DHT22;11128;51.096;17.190;2023-05-10T03:08:02;7.80;99.90
21928;DHT22;11128;51.096;17.190;2023-05-10T03:24:09;7.80;99.90
21928;DHT22;11128;51.096;17.190;2023-05-10T03:29:13;7.70;99.90
21928;DHT22;11128;51.096;17.190;2023-05-10T03:34:15;7.80;99.90
21928;DHT22;11128;51.096;17.190;2023-05-10T03:39:18;7.80;99.90
21928;DHT22;11128;51.096;17.190;2023-05-10T03:44:20;7.80;99.90
21928;DHT22;11128;51.096;17.190;2023-05-10T03:49:21;7.80;99.90
21928;DHT22;11128;51.096;17.190;2023-05-10T03:54:22;8.20;99.90
21928;DHT22;11128;51.096;17.190;2023-05-10T03:59:24;7.70;99.90
21928;DHT22;11128;51.096;17.190;2023-05-10T04:04:25;7.70;99.90
21928;DHT22;11128;51.096;17.190;2023-05-10T04:09:26;7.80;99.90
21928;DHT22;11128;51.096;17.190;2023-05-10T04:14:28;7.90;99.90
21928;DHT22;11128;51.096;17.190;2023-05-10T04:19:32;7.80;99.90
21928;DHT22;11128;51.096;17.190;2023-05-10T04:24:33;7.80;99.90
21928;DHT22;11128;51.096;17.190;2023-05-10T04:29:34;7.90;99.90
21928;DHT22;11128;51.096;17.190;2023-05-10T04:34:36;8.00;99.90
21928;DHT22;11128;51.096;17.190;2023-05-10T04:39:37;8.20;99.90
21928;DHT22;11128;51.096;17.190;2023-05-10T04:44:38;8.40;99.90
21928;DHT22;11128;51.096;17.190;2023-05-10T04:49:40;8.70;99.90
21928;DHT22;11128;51.096;17.190;2023-05-10T04:54:41;8.90;93.70
21928;DHT22;11128;51.096;17.190;2023-05-10T04:59:42;9.10;26.30
21928;DHT22;11128;51.096;17.190;2023-05-10T05:04:43;9.30;1.00
21928;DHT22;11128;51.096;17.190;2023-05-10T05:09:45;9.40;1.00
21928;DHT22;11128;51.096;17.190;2023-05-10T05:14:46;9.60;1.00
21928;DHT22;11128;51.096;17.190;2023-05-10T05:19:47;9.80;1.00
21928;DHT22;11128;51.096;17.190;2023-05-10T05:24:48;10.00;1.00
21928;DHT22;11128;51.096;17.190;2023-05-10T05:29:58;10.20;1.00
21928;DHT22;11128;51.096;17.190;2023-05-10T05:34:59;10.30;1.00
21928;DHT22;11128;51.096;17.190;2023-05-10T05:40:01;10.50;1.00
21928;DHT22;11128;51.096;17.190;2023-05-10T05:45:02;10.60;1.00
21928;DHT22;11128;51.096;17.190;2023-05-10T05:50:05;10.80;1.00
21928;DHT22;11128;51.096;17.190;2023-05-10T05:55:06;11.00;1.00
21928;DHT22;11128;51.096;17.190;2023-05-10T06:00:08;11.10;1.00
21928;DHT22;11128;51.096;17.190;2023-05-10T06:05:09;11.30;1.00
21928;DHT22;11128;51.096;17.190;2023-05-10T06:10:10;11.50;1.00
21928;DHT22;11128;51.096;17.190;2023-05-10T06:15:12;11.70;1.00
21928;DHT22;11128;51.096;17.190;2023-05-10T06:20:13;12.10;1.00
21928;DHT22;11128;51.096;17.190;2023-05-10T06:25:14;12.10;1.00
21928;DHT22;11128;51.096;17.190;2023-05-10T06:30:18;12.40;1.00
21928;DHT22;11128;51.096;17.190;2023-05-10T06:35:20;12.60;1.00
21928;DHT22;11128;51.096;17.190;2023-05-10T06:40:21;12.90;1.00
21928;DHT22;11128;51.096;17.190;2023-05-10T06:45:22;13.10;1.00
21928;DHT22;11128;51.096;17.190;2023-05-10T06:50:23;13.40;1.00
21928;DHT22;11128;51.096;17.190;2023-05-10T06:55:25;13.60;1.00
21928;DHT22;11128;51.096;17.190;2023-05-10T07:00:27;13.80;1.00
21928;DHT22;11128;51.096;17.190;2023-05-10T07:05:28;14.10;1.00
21928;DHT22;11128;51.096;17.190;2023-05-10T07:10:30;14.40;1.00
21928;DHT22;11128;51.096;17.190;2023-05-10T07:15:32;14.60;1.00
21928;DHT22;11128;51.096;17.190;2023-05-10T07:20:34;14.90;1.00
21928;DHT22;11128;51.096;17.190;2023-05-10T07:25:36;14.90;1.00
21928;DHT22;11128;51.096;17.190;2023-05-10T07:30:39;15.20;1.00
21928;DHT22;11128;51.096;17.190;2023-05-10T07:35:40;15.40;1.00
21928;DHT22;11128;51.096;17.190;2023-05-10T07:40:42;15.70;1.00
21928;DHT22;11128;51.096;17.190;2023-05-10T07:45:44;15.90;1.00
21928;DHT22;11128;51.096;17.190;2023-05-10T07:50:45;16.30;1.00
21928;DHT22;11128;51.096;17.190;2023-05-10T07:55:58;16.40;1.00
21928;DHT22;11128;51.096;17.190;2023-05-10T08:01:00;16.80;1.00
21928;DHT22;11128;51.096;17.190;2023-05-10T08:06:01;17.00;1.00
21928;DHT22;11128;51.096;17.190;2023-05-10T08:11:03;16.90;1.00
21928;DHT22;11128;51.096;17.190;2023-05-10T08:16:05;17.10;1.00
21928;DHT22;11128;51.096;17.190;2023-05-10T08:21:06;17.50;1.00
21928;DHT22;11128;51.096;17.190;2023-05-10T08:26:07;17.80;1.00
21928;DHT22;11128;51.096;17.190;2023-05-10T08:31:09;18.20;1.00
21928;DHT22;11128;51.096;17.190;2023-05-10T08:36:10;18.50;1.00
21928;DHT22;11128;51.096;17.190;2023-05-10T08:41:13;18.70;1.00
21928;DHT22;11128;51.096;17.190;2023-05-10T08:46:19;18.90;1.00
21928;DHT22;11128;51.096;17.190;2023-05-10T08:51:25;19.20;1.00
21928;DHT22;11128;51.096;17.190;2023-05-10T08:56:28;19.50;1.00
21928;DHT22;11128;51.096;17.190;2023-05-10T09:01:31;19.60;1.00
21928;DHT22;11128;51.096;17.190;2023-05-10T09:06:34;19.80;1.00
21928;DHT22;11128;51.096;17.190;2023-05-10T09:11:35;20.00;1.00
21928;DHT22;11128;51.096;17.190;2023-05-10T09:16:37;20.10;1.00
21928;DHT22;11128;51.096;17.190;2023-05-10T09:21:39;20.40;1.00
21928;DHT22;11128;51.096;17.190;2023-05-10T09:26:47;20.70;1.00
21928;DHT22;11128;51.096;17.190;2023-05-10T09:31:51;20.80;1.00
21928;DHT22;11128;51.096;17.190;2023-05-10T09:37:00;21.10;1.00
21928;DHT22;11128;51.096;17.190;2023-05-10T09:42:07;21.20;1.00
21928;DHT22;11128;51.096;17.190;2023-05-10T09:47:09;21.50;1.00
21928;DHT22;11128;51.096;17.190;2023-05-10T09:52:11;21.50;1.00
21928;DHT22;11128;51.096;17.190;2023-05-10T09:57:20;22.10;1.00
21928;DHT22;11128;51.096;17.190;2023-05-10T10:02:27;22.10;1.00
21928;DHT22;11128;51.096;17.190;2023-05-10T10:07:30;22.30;1.00
21928;DHT22;11128;51.096;17.190;2023-05-10T10:12:32;22.00;1.00
21928;DHT22;11128;51.096;17.190;2023-05-10T10:17:36;22.30;1.00
21928;DHT22;11128;51.096;17.190;2023-05-10T10:22:39;22.40;1.00
21928;DHT22;11128;51.096;17.190;2023-05-10T10:43:47;23.50;1.00
21928;DHT22;11128;51.096;17.190;2023-05-10T10:48:50;23.90;1.00
21928;DHT22;11128;51.096;17.190;2023-05-10T10:53:53;24.20;1.00
21928;DHT22;11128;51.096;17.190;2023-05-10T10:58:59;23.70;1.00
21928;DHT22;11128;51.096;17.190;2023-05-10T11:04:16;24.10;1.00
21928;DHT22;11128;51.096;17.190;2023-05-10T11:09:18;24.30;1.00
21928;DHT22;11128;51.096;17.190;2023-05-10T11:14:21;24.70;1.00
21928;DHT22;11128;51.096;17.190;2023-05-10T11:19:27;24.00;1.00
21928;DHT22;11128;51.096;17.190;2023-05-10T11:24:28;22.60;1.00
21928;DHT22;11128;51.096;17.190;2023-05-10T11:29:30;23.50;1.00
21928;DHT22;11128;51.096;17.190;2023-05-10T11:34:32;23.80;1.00
21928;DHT22;11128;51.096;17.190;2023-05-10T11:39:36;24.10;1.00
21928;DHT22;11128;51.096;17.190;2023-05-10T11:44:37;23.70;1.00
21928;DHT22;11128;51.096;17.190;2023-05-10T11:49:39;22.90;1.00
21928;DHT22;11128;51.096;17.190;2023-05-10T11:54:54;23.10;1.00
21928;DHT22;11128;51.096;17.190;2023-05-10T11:59:57;23.50;1.00
21928;DHT22;11128;51.096;17.190;2023-05-10T12:04:58;23.70;1.00
21928;DHT22;11128;51.096;17.190;2023-05-10T12:10:06;23.90;1.00
21928;DHT22;11128;51.096;17.190;2023-05-10T12:15:20;23.00;1.00
21928;DHT22;11128;51.096;17.190;2023-05-10T12:20:23;23.00;1.00
21928;DHT22;11128;51.096;17.190;2023-05-10T12:25:31;23.00;1.00
21928;DHT22;11128;51.096;17.190;2023-05-10T12:30:34;22.20;1.00
21928;DHT22;11128;51.096;17.190;2023-05-10T12:35:53;22.80;1.00
21928;DHT22;11128;51.096;17.190;2023-05-10T12:41:02;23.80;1.00
21928;DHT22;11128;51.096;17.190;2023-05-10T12:46:07;24.10;1.00
21928;DHT22;11128;51.096;17.190;2023-05-10T12:51:09;23.90;1.00
21928;DHT22;11128;51.096;17.190;2023-05-10T12:56:13;24.00;1.00
21928;DHT22;11128;51.096;17.190;2023-05-10T13:01:14;23.40;1.00
21928;DHT22;11128;51.096;17.190;2023-05-10T13:06:30;22.50;1.00
21928;DHT22;11128;51.096;17.190;2023-05-10T13:11:31;21.80;1.00
21928;DHT22;11128;51.096;17.190;2023-05-10T13:16:33;22.00;1.00
21928;DHT22;11128;51.096;17.190;2023-05-10T13:21:35;22.50;1.00
21928;DHT22;11128;51.096;17.190;2023-05-10T13:26:37;21.80;1.00
21928;DHT22;11128;51.096;17.190;2023-05-10T13:31:38;21.60;1.00
21928;DHT22;11128;51.096;17.190;2023-05-10T13:36:40;22.20;1.00
21928;DHT22;11128;51.096;17.190;2023-05-10T13:41:41;22.10;1.00
21928;DHT22;11128;51.096;17.190;2023-05-10T13:46:43;21.90;1.00
21928;DHT22;11128;51.096;17.190;2023-05-10T13:51:46;22.60;1.00
21928;DHT22;11128;51.096;17.190;2023-05-10T14:02:45;22.70;1.00
21928;DHT22;11128;51.096;17.190;2023-05-10T14:07:47;22.00;1.00
21928;DHT22;11128;51.096;17.190;2023-05-10T14:12:49;21.60;1.00
21928;DHT22;11128;51.096;17.190;2023-05-10T14:17:51;21.70;1.00
21928;DHT22;11128;51.096;17.190;2023-05-10T14:22:52;21.80;1.00
21928;DHT22;11128;51.096;17.190;2023-05-10T14:27:54;21.40;1.00
21928;DHT22;11128;51.096;17.190;2023-05-10T14:32:55;21.50;1.00
21928;DHT22;11128;51.096;17.190;2023-05-10T14:37:59;21.60;1.00
21928;DHT22;11128;51.096;17.190;2023-05-10T14:43:01;22.00;1.00
21928;DHT22;11128;51.096;17.190;2023-05-10T14:48:02;22.30;1.00
21928;DHT22;11128;51.096;17.190;2023-05-10T14:58:45;22.00;1.00
21928;DHT22;11128;51.096;17.190;2023-05-10T15:03:47;22.20;1.00
21928;DHT22;11128;51.096;17.190;2023-05-10T15:08:48;22.00;1.00
21928;DHT22;11128;51.096;17.190;2023-05-10T15:13:50;22.00;1.00
21928;DHT22;11128;51.096;17.190;2023-05-10T15:18:51;21.90;1.00
21928;DHT22;11128;51.096;17.190;2023-05-10T15:23:53;21.50;1.00
21928;DHT22;11128;51.096;17.190;2023-05-10T15:28:55;21.40;1.00
21928;DHT22;11128;51.096;17.190;2023-05-10T15:33:57;21.20;1.00
21928;DHT22;11128;51.096;17.190;2023-05-10T15:39:00;20.90;1.00
21928;DHT22;11128;51.096;17.190;2023-05-10T15:44:01;20.80;1.00
21928;DHT22;11128;51.096;17.190;2023-05-10T15:49:03;20.50;1.00
21928;DHT22;11128;51.096;17.190;2023-05-10T15:54:04;20.40;1.00
21928;DHT22;11128;51.096;17.190;2023-05-10T15:59:07;20.40;1.00
21928;DHT22;11128;51.096;17.190;2023-05-10T16:04:10;20.40;1.00
21928;DHT22;11128;51.096;17.190;2023-05-10T16:09:11;20.40;1.00
21928;DHT22;11128;51.096;17.190;2023-05-10T16:14:13;20.40;1.00
21928;DHT22;11128;51.096;17.190;2023-05-10T16:19:16;20.20;1.00
21928;DHT22;11128;51.096;17.190;2023-05-10T16:24:17;20.00;1.00
21928;DHT22;11128;51.096;17.190;2023-05-10T16:29:19;19.90;1.00
21928;DHT22;11128;51.096;17.190;2023-05-10T16:34:20;19.80;1.00
21928;DHT22;11128;51.096;17.190;2023-05-10T16:39:26;19.80;1.00
21928;DHT22;11128;51.096;17.190;2023-05-10T16:44:27;19.80;1.00
21928;DHT22;11128;51.096;17.190;2023-05-10T16:49:29;19.80;1.00
21928;DHT22;11128;51.096;17.190;2023-05-10T16:54:30;19.80;1.00
21928;DHT22;11128;51.096;17.190;2023-05-10T16:59:32;19.70;1.00
21928;DHT22;11128;51.096;17.190;2023-05-10T17:04:33;19.50;1.00
21928;DHT22;11128;51.096;17.190;2023-05-10T17:09:35;19.40;1.00
21928;DHT22;11128;51.096;17.190;2023-05-10T17:14:36;19.20;1.00
21928;DHT22;11128;51.096;17.190;2023-05-10T17:19:44;19.10;1.00
21928;DHT22;11128;51.096;17.190;2023-05-10T17:24:45;19.00;1.00
21928;DHT22;11128;51.096;17.190;2023-05-10T17:29:47;18.90;1.00
21928;DHT22;11128;51.096;17.190;2023-05-10T17:34:48;18.90;1.00
21928;DHT22;11128;51.096;17.190;2023-05-10T17:39:50;18.90;1.00
21928;DHT22;11128;51.096;17.190;2023-05-10T17:44:51;18.80;1.00
21928;DHT22;11128;51.096;17.190;2023-05-10T17:49:52;18.70;1.00
21928;DHT22;11128;51.096;17.190;2023-05-10T17:54:54;18.70;1.00
21928;DHT22;11128;51.096;17.190;2023-05-10T17:59:55;18.60;1.00
21928;DHT22;11128;51.096;17.190;2023-05-10T18:04:57;18.60;1.00
21928;DHT22;11128;51.096;17.190;2023-05-10T18:09:58;18.50;1.00
21928;DHT22;11128;51.096;17.190;2023-05-10T18:15:01;18.40;1.00
21928;DHT22;11128;51.096;17.190;2023-05-10T18:20:04;18.40;1.00
21928;DHT22;11128;51.096;17.190;2023-05-10T18:25:06;18.30;1.00
21928;DHT22;11128;51.096;17.190;2023-05-10T18:30:08;18.20;1.00
21928;DHT22;11128;51.096;17.190;2023-05-10T18:35:10;18.00;1.00
21928;DHT22;11128;51.096;17.190;2023-05-10T18:40:12;17.90;1.00
21928;DHT22;11128;51.096;17.190;2023-05-10T18:45:15;17.90;1.00
21928;DHT22;11128;51.096;17.190;2023-05-10T18:50:17;17.70;1.00
21928;DHT22;11128;51.096;17.190;2023-05-10T18:55:19;17.60;1.00
21928;DHT22;11128;51.096;17.190;2023-05-10T19:00:21;17.50;1.00
21928;DHT22;11128;51.096;17.190;2023-05-10T19:05:25;17.40;1.00
21928;DHT22;11128;51.096;17.190;2023-05-10T19:10:30;17.20;1.00
21928;DHT22;11128;51.096;17.190;2023-05-10T19:15:31;17.10;1.00
21928;DHT22;11128;51.096;17.190;2023-05-10T19:20:33;16.90;1.00
21928;DHT22;11128;51.096;17.190;2023-05-10T19:25:35;16.80;1.00
21928;DHT22;11128;51.096;17.190;2023-05-10T19:30:36;16.60;1.00
21928;DHT22;11128;51.096;17.190;2023-05-10T19:35:38;16.30;1.00
21928;DHT22;11128;51.096;17.190;2023-05-10T19:40:39;16.10;1.00
21928;DHT22;11128;51.096;17.190;2023-05-10T19:45:41;16.00;1.00
21928;DHT22;11128;51.096;17.190;2023-05-10T19:50:42;16.00;1.00
21928;DHT22;11128;51.096;17.190;2023-05-10T19:55:43;16.00;1.00
21928;DHT22;11128;51.096;17.190;2023-05-10T20:00:45;15.90;1.00
21928;DHT22;11128;51.096;17.190;2023-05-10T20:05:46;15.90;1.00
21928;DHT22;11128;51.096;17.190;2023-05-10T20:10:47;15.80;1.00
21928;DHT22;11128;51.096;17.190;2023-05-10T20:15:49;15.80;1.00
21928;DHT22;11128;51.096;17.190;2023-05-10T20:20:54;15.60;1.00
21928;DHT22;11128;51.096;17.190;2023-05-10T20:25:55;15.60;1.00
21928;DHT22;11128;51.096;17.190;2023-05-10T20:30:57;15.50;1.00
21928;DHT22;11128;51.096;17.190;2023-05-10T20:35:58;15.50;1.00
21928;DHT22;11128;51.096;17.190;2023-05-10T20:41:00;15.40;1.00
21928;DHT22;11128;51.096;17.190;2023-05-10T20:46:02;15.30;1.00
21928;DHT22;11128;51.096;17.190;2023-05-10T20:51:05;15.40;1.00
21928;DHT22;11128;51.096;17.190;2023-05-10T20:56:06;15.50;1.00
21928;DHT22;11128;51.096;17.190;2023-05-10T21:01:08;15.40;1.00
21928;DHT22;11128;51.096;17.190;2023-05-10T21:06:09;15.30;1.00
21928;DHT22;11128;51.096;17.190;2023-05-10T21:11:10;15.20;1.00
21928;DHT22;11128;51.096;17.190;2023-05-10T21:16:12;15.10;1.00
21928;DHT22;11128;51.096;17.190;2023-05-10T21:21:13;15.20;1.00
21928;DHT22;11128;51.096;17.190;2023-05-10T21:26:15;15.10;1.00
21928;DHT22;11128;51.096;17.190;2023-05-10T21:31:16;15.10;1.00
21928;DHT22;11128;51.096;17.190;2023-05-10T21:36:18;15.10;1.00
21928;DHT22;11128;51.096;17.190;2023-05-10T21:41:19;15.10;1.00
21928;DHT22;11128;51.096;17.190;2023-05-10T21:46:22;15.10;1.00
21928;DHT22;11128;51.096;17.190;2023-05-10T21:51:23;15.00;1.00
21928;DHT22;11128;51.096;17.190;2023-05-10T21:56:25;15.00;1.00
21928;DHT22;11128;51.096;17.190;2023-05-10T22:01:26;14.90;1.00
21928;DHT22;11128;51.096;17.190;2023-05-10T22:06:40;14.90;1.00
21928;DHT22;11128;51.096;17.190;2023-05-10T22:11:41;14.80;1.00
21928;DHT22;11128;51.096;17.190;2023-05-10T22:16:42;14.80;1.00
21928;DHT22;11128;51.096;17.190;2023-05-10T22:22:03;14.80;1.00
21928;DHT22;11128;51.096;17.190;2023-05-10T22:27:04;14.80;1.00
21928;DHT22;11128;51.096;17.190;2023-05-10T22:32:06;14.80;1.00
21928;DHT22;11128;51.096;17.190;2023-05-10T22:37:07;14.70;1.00
21928;DHT22;11128;51.096;17.190;2023-05-10T22:42:09;14.80;1.00
21928;DHT22;11128;51.096;17.190;2023-05-10T22:47:10;14.70;1.00
21928;DHT22;11128;51.096;17.190;2023-05-10T22:52:11;14.60;1.00
21928;DHT22;11128;51.096;17.190;2023-05-10T22:57:13;14.60;1.00
21928;DHT22;11128;51.096;17.190;2023-05-10T23:02:15;14.40;1.00
21928;DHT22;11128;51.096;17.190;2023-05-10T23:07:17;14.40;1.00
21928;DHT22;11128;51.096;17.190;2023-05-10T23:12:18;14.30;1.00
21928;DHT22;11128;51.096;17.190;2023-05-10T23:17:19;14.20;1.00
21928;DHT22;11128;51.096;17.190;2023-05-10T23:22:20;14.10;1.00
21928;DHT22;11128;51.096;17.190;2023-05-10T23:27:22;13.90;1.00
21928;DHT22;11128;51.096;17.190;2023-05-10T23:32:23;13.80;1.00
21928;DHT22;11128;51.096;17.190;2023-05-10T23:37:24;13.70;1.00
21928;DHT22;11128;51.096;17.190;2023-05-10T23:42:25;13.50;1.00
21928;DHT22;11128;51.096;17.190;2023-05-10T23:47:27;13.40;1.00
21928;DHT22;11128;51.096;17.190;2023-05-10T23:52:28;13.30;1.00
21928;DHT22;11128;51.096;17.190;2023-05-10T23:57:29;13.20;1.00
